Time;durP1;ratioP1;P1;durP2;ratioP2;P2;SDS_P1;SDS_P2;PMS_P1;PMS_P2;Temp;Humidity;BMP_temperature;BMP_pressure;BME280_temperature;BME280_humidity;BME280_pressure;Samples;Min_cycle;Max_cycle;Signal;HPM_P1;HPM_P2
2022/06/16 19:52:55;;;;;;;3.30;1.60;;;25.90;51.00;;;;;;5438629;23;20060;-78
2022/06/16 19:55:23;;;;;;;3.80;2.22;;;25.80;51.00;;;;;;4908886;29;20040;-78
2022/06/16 19:57:49;;;;;;;4.77;2.17;;;25.80;51.20;;;;;;4909273;29;20040;-78
2022/06/16 20:00:22;;;;;;;3.90;1.67;;;25.70;51.50;;;;;;4908124;29;20044;-80
2022/06/16 20:02:48;;;;;;;3.63;2.08;;;25.70;51.40;;;;;;4909546;29;20029;-79
2022/06/16 20:05:18;;;;;;;4.15;1.75;;;25.60;51.60;;;;;;4908935;29;20032;-79
2022/06/16 20:07:45;;;;;;;4.80;2.10;;;25.30;51.90;;;;;;4908005;29;20037;-79
2022/06/16 20:10:13;;;;;;;4.00;1.58;;;25.20;52.10;;;;;;4908772;29;20092;-77
2022/06/16 20:12:41;;;;;;;3.97;2.00;;;25.10;52.30;;;;;;4907981;29;20092;-80
2022/06/16 20:15:09;;;;;;;2.78;1.48;;;24.90;52.70;;;;;;4908437;29;20230;-79
2022/06/16 20:17:35;;;;;;;6.93;2.10;;;24.80;52.80;;;;;;4907704;29;20036;-79
2022/06/16 20:20:01;;;;;;;3.72;2.08;;;24.70;52.80;;;;;;4907494;29;20060;-78
2022/06/16 20:22:27;;;;;;;3.38;1.70;;;24.60;53.10;;;;;;4908355;29;20040;-78
2022/06/16 20:24:53;;;;;;;5.05;1.95;;;24.50;53.10;;;;;;4908724;29;20036;-78
2022/06/16 20:27:19;;;;;;;4.40;1.58;;;24.40;53.40;;;;;;4912168;29;20043;-77
2022/06/16 20:29:45;;;;;;;3.15;1.70;;;24.30;53.50;;;;;;4908347;29;20326;-80
2022/06/16 20:32:17;;;;;;;4.32;1.80;;;24.20;53.70;;;;;;4907697;29;20140;-79
2022/06/16 20:34:43;;;;;;;3.63;1.75;;;24.00;54.00;;;;;;4908398;29;20076;-77
2022/06/16 20:37:09;;;;;;;3.30;1.60;;;23.90;54.30;;;;;;4908547;29;20044;-76
2022/06/16 20:39:35;;;;;;;5.05;1.70;;;23.80;54.50;;;;;;4908501;29;20041;-78
2022/06/16 20:42:13;;;;;;;3.28;1.70;;;23.70;54.40;;;;;;4907222;29;20188;-79
2022/06/16 20:44:42;;;;;;;3.28;1.67;;;23.80;54.50;;;;;;4907600;29;20037;-79
2022/06/16 20:47:11;;;;;;;3.25;1.70;;;23.60;54.80;;;;;;4906954;29;20374;-78
2022/06/16 20:49:40;;;;;;;3.35;1.90;;;23.50;55.10;;;;;;4908240;29;20055;-79
2022/06/16 20:52:10;;;;;;;3.33;1.58;;;23.40;55.30;;;;;;4908142;29;20045;-78
2022/06/16 20:54:37;;;;;;;5.35;1.88;;;23.30;55.40;;;;;;4908049;29;20314;-77
2022/06/16 21:02:34;;;;;;;5.43;2.05;;;23.30;55.40;;;;;;4907757;29;20322;-80
2022/06/16 21:05:00;;;;;;;3.97;1.87;;;23.40;55.70;;;;;;4908266;29;20040;-78
2022/06/16 21:07:25;;;;;;;3.90;1.80;;;23.30;55.80;;;;;;4907604;29;20337;-78
2022/06/16 21:09:51;;;;;;;4.18;2.03;;;23.30;55.70;;;;;;4907997;29;20033;-77
2022/06/16 21:12:19;;;;;;;3.25;1.77;;;23.30;55.70;;;;;;4907496;29;20033;-78
2022/06/16 21:14:52;;;;;;;3.13;1.48;;;23.30;55.50;;;;;;4907902;29;20083;-78
2022/06/16 21:17:21;;;;;;;4.88;1.83;;;23.40;55.50;;;;;;4906856;29;20048;-77
2022/06/16 21:19:53;;;;;;;2.97;1.73;;;23.30;55.60;;;;;;4907857;29;20029;-79
2022/06/16 21:22:29;;;;;;;3.65;1.60;;;23.30;55.90;;;;;;4906199;29;20024;-80
2022/06/16 21:24:56;;;;;;;4.45;1.90;;;23.20;55.80;;;;;;4906777;29;20088;-78
2022/06/16 21:27:22;;;;;;;2.90;1.65;;;23.10;56.30;;;;;;4906949;29;20048;-78
2022/06/16 21:29:49;;;;;;;4.05;1.90;;;22.90;56.40;;;;;;4906707;29;20176;-78
2022/06/16 21:32:19;;;;;;;3.75;1.95;;;22.90;57.00;;;;;;4906127;29;20075;-78
2022/06/16 21:34:47;;;;;;;3.88;1.70;;;22.80;57.00;;;;;;4907379;29;20107;-79
2022/06/16 21:37:23;;;;;;;2.95;1.67;;;22.70;57.10;;;;;;4907445;29;20032;-77
2022/06/16 21:39:49;;;;;;;2.47;1.70;;;22.60;57.30;;;;;;4907732;29;20100;-77
2022/06/16 21:42:16;;;;;;;4.30;1.90;;;22.60;57.60;;;;;;4906926;29;20040;-78
2022/06/16 21:44:42;;;;;;;3.75;1.65;;;22.40;57.80;;;;;;4906629;29;20054;-78
2022/06/16 21:47:17;;;;;;;3.75;1.65;;;22.30;58.00;;;;;;4906978;29;20249;-78
2022/06/16 21:49:56;;;;;;;4.63;2.00;;;22.20;58.30;;;;;;4907678;29;20024;-78
2022/06/16 21:52:24;;;;;;;3.88;1.63;;;22.20;58.60;;;;;;4906858;29;20055;-79
2022/06/16 21:54:51;;;;;;;4.72;1.88;;;22.10;58.60;;;;;;4907286;29;20310;-79
2022/06/16 21:57:18;;;;;;;4.50;1.73;;;22.00;58.50;;;;;;4906589;29;20111;-78
2022/06/16 21:59:44;;;;;;;4.18;1.50;;;21.90;58.80;;;;;;4907317;29;20017;-78
2022/06/16 22:02:23;;;;;;;4.88;1.65;;;21.90;58.80;;;;;;4906698;29;20040;-79
2022/06/16 22:04:49;;;;;;;4.28;1.65;;;21.80;58.80;;;;;;4905929;29;20111;-79
2022/06/16 22:07:15;;;;;;;4.35;1.75;;;21.80;59.70;;;;;;4907063;29;20221;-79
2022/06/16 22:09:41;;;;;;;4.30;2.05;;;21.70;59.20;;;;;;4907220;29;20060;-80
2022/06/16 22:12:22;;;;;;;5.30;1.70;;;21.70;59.10;;;;;;4907240;29;20028;-78
2022/06/16 22:17:52;;;;;;;3.95;1.48;;;21.60;59.30;;;;;;4906953;29;20115;-79
2022/06/16 22:20:32;;;;;;;4.20;1.50;;;21.60;59.30;;;;;;4905467;29;20060;-78
2022/06/16 22:22:59;;;;;;;2.33;1.40;;;21.50;59.30;;;;;;4906960;29;20096;-79
2022/06/16 22:25:32;;;;;;;2.45;1.52;;;21.50;59.30;;;;;;4905487;29;20074;-79
2022/06/16 22:28:06;;;;;;;4.22;1.60;;;21.50;59.40;;;;;;4905923;29;20032;-79
2022/06/16 22:30:33;;;;;;;2.63;1.20;;;21.40;59.60;;;;;;4904674;29;20049;-79
2022/06/16 22:32:59;;;;;;;4.40;1.20;;;21.40;59.60;;;;;;4906055;29;20084;-77
2022/06/16 22:35:29;;;;;;;3.00;1.40;;;21.30;59.80;;;;;;4905161;29;20044;-78
2022/06/16 22:37:57;;;;;;;4.43;1.45;;;21.20;59.80;;;;;;4906749;29;20040;-78
2022/06/16 22:40:27;;;;;;;2.92;1.40;;;21.10;60.20;;;;;;4906256;29;20044;-78
2022/06/16 22:43:16;;;;;;;5.13;1.90;;;21.00;60.90;;;;;;4907086;29;20370;-79
2022/06/16 22:45:46;;;;;;;4.22;2.65;;;21.00;61.40;;;;;;4909797;29;20086;-78
2022/06/16 22:48:20;;;;;;;8.80;2.53;;;20.80;61.40;;;;;;4909424;29;20033;-79
2022/06/16 22:50:46;;;;;;;3.50;1.70;;;20.80;62.00;;;;;;4910589;29;20095;-78
2022/06/16 22:53:15;;;;;;;4.18;2.05;;;20.80;61.70;;;;;;4910111;29;20048;-79
2022/06/16 22:58:25;;;;;;;3.30;1.80;;;20.70;62.80;;;;;;4909977;29;20075;-78
